OIFK  Kashan Airport

Add Bookmark

Iran

Status
Operational
Latitude Longitude
33° 53' 43" N 51° 34' 37" E
33.895302 51.577000
Local (DST + 5) UTC (GMT + 4)
Oct 25, 2014 06:56 Oct 25, 2014 03:26
Sunrise-Sunset Local UTC
Begin Civil Twilight 05:50 02:20
Sunrise 06:15 02:45
Sunset 05:19 13:49
End Civil Twilight 05:45 14:15

Current Weather

METAR Observed VFR
OIFK 250100Z 00000KT CAVOK 11/03 Q1020 Sat, Oct 25, 2014 @ 01:00 UTC
(2 Hours, 26 Minutes ago)
Visual Flight Rules
Wind Visibility Clouds Conditions
Calm 10 km or more
  • Clear skies
  • No significant weather
Temperatures Readings Precipitation
Current Temp 11°C (52°F)
Dewpoint 3°C (37°F)
Humidity 58%
Altimeter 30.12"Hg
Sea Level Pressure 1020mb
Field Elevation 3221.78'
None Recorded

Additional weather within a 185.2km radius of OIFK

Map ICAO Location
OIFM 129.8km S (168°)
OIIE 173.3km N (347°)

24 Hour Weather History

Loading
-

24 Hour Weather Graphs

Loading
-

CheckWX.com is intended as a tool to help pilots better visualize weather data. It is not intended as a substitute for an official weather briefing obtained from a Flight Service Station. CheckWX.com does not meet the FAA requirements for an official pre-flight weather briefing. Therefore, it's important that pilots still call and obtain an official FSS pre-flight weather briefing.